aviador You're here:

OBBI Decoded Metar

BAHRAIN in BAHRAIN
Report Time2017-11-23 20:00:00
UTC Time2017-11-23 20:14:51
Flight Rules vfr VFR
Wind340° at 05 kt
W.Decomp.*RWY 30: 3.9 kt HW 3.1 kt RCW
W.Rank340° ranks 5
Current wind is below 340° avg. (10.4)
Visibility9999 m
Phenomena:N/A
Clouds:Few 025 Hf
Expected CloudBase > 3,600 ft AGL from Temp-Dew spread
CeilingNone
Temp23°C (ISA +8)
Dew Point14°C (57% RH)
AAT22.5°C
QNH1015 hPa
Density Alt1,086 ft
Elevation7 ft
Report Wrong Elevation
Raw Report
METAR OBBI 232000Z 34005KT 320V040 9999 FEW025 23/14 Q1015 NOSIG=

Extra information for OBBI:More info

Metar Taf Metar & Taf Last 4 Metars F.Rules Stats Wind Profile Meteogram Temp Stats Airport Information Weather charts Add Link Nearby VenuesMetar ALERT Operation Metar Decoded Social comments